createdAt,value
2018-02-04T00:01:38.908Z,79.00
2018-02-04T00:04:06.436Z,79.10
2018-02-04T00:06:34.019Z,79.10
2018-02-04T00:09:01.553Z,79.20
2018-02-04T00:11:29.143Z,79.20
2018-02-04T00:13:56.684Z,79.10
2018-02-04T00:16:24.264Z,79.20
2018-02-04T00:18:51.804Z,79.10
2018-02-04T00:21:19.392Z,79.20
2018-02-04T00:23:46.999Z,79.20
2018-02-04T00:26:15.345Z,79.30
2018-02-04T00:28:42.912Z,80.00
2018-02-04T00:31:10.478Z,79.40
2018-02-04T00:33:38.029Z,79.30
2018-02-04T00:36:05.615Z,79.40
2018-02-04T00:38:33.917Z,79.40
2018-02-04T00:41:01.497Z,79.40
2018-02-04T00:43:29.034Z,79.40
2018-02-04T00:45:56.696Z,79.40
2018-02-04T00:48:24.258Z,79.40
2018-02-04T00:50:51.851Z,79.30
2018-02-04T00:53:19.395Z,79.40
2018-02-04T00:55:47.043Z,79.50
2018-02-04T00:58:14.583Z,79.50
2018-02-04T01:00:42.167Z,79.40
2018-02-04T01:03:09.700Z,79.40
2018-02-04T01:05:37.278Z,79.40
2018-02-04T01:08:04.810Z,79.40
2018-02-04T01:10:33.160Z,79.50
2018-02-04T01:13:00.699Z,79.40
2018-02-04T01:15:28.394Z,79.40
2018-02-04T01:17:56.697Z,79.60
2018-02-04T01:20:24.369Z,79.60
2018-02-04T01:22:51.890Z,79.60
2018-02-04T01:25:19.529Z,79.60
2018-02-04T01:27:47.153Z,79.60
2018-02-04T01:30:14.741Z,79.70
2018-02-04T01:32:42.283Z,79.60
2018-02-04T01:35:09.859Z,79.60
2018-02-04T01:37:37.387Z,79.70
2018-02-04T01:40:04.982Z,79.70
2018-02-04T01:42:32.518Z,79.60
2018-02-04T01:45:00.103Z,79.70
2018-02-04T01:47:27.698Z,79.70
2018-02-04T01:49:55.248Z,79.70
2018-02-04T01:52:22.779Z,79.80
2018-02-04T01:54:50.363Z,79.60
2018-02-04T01:57:17.898Z,79.60
2018-02-04T01:59:45.483Z,79.70
2018-02-04T02:02:13.017Z,79.60
2018-02-04T02:04:40.593Z,79.70
2018-02-04T02:07:08.117Z,79.60
2018-02-04T02:09:35.697Z,79.70
2018-02-04T02:12:03.338Z,79.70
2018-02-04T02:14:30.903Z,79.80
2018-02-04T02:16:58.432Z,79.80
2018-02-04T02:19:26.020Z,79.80
2018-02-04T02:21:53.546Z,79.80
2018-02-04T02:24:21.141Z,79.90
2018-02-04T02:26:48.669Z,79.80
2018-02-04T02:29:16.242Z,79.80
2018-02-04T02:31:43.787Z,79.80
2018-02-04T02:34:11.373Z,79.80
2018-02-04T02:36:38.904Z,79.80
2018-02-04T02:39:06.493Z,79.80
2018-02-04T02:41:34.026Z,79.80
2018-02-04T02:44:02.359Z,79.80
2018-02-04T02:46:29.992Z,79.70
2018-02-04T02:48:57.532Z,79.70
2018-02-04T02:51:25.121Z,79.70
2018-02-04T02:53:52.652Z,79.80
2018-02-04T02:56:20.239Z,79.80
2018-02-04T02:58:47.771Z,79.70
2018-02-04T03:01:15.345Z,79.70
2018-02-04T03:03:42.871Z,79.80
2018-02-04T03:06:11.288Z,79.80
2018-02-04T03:08:38.864Z,79.80
2018-02-04T03:11:06.401Z,79.70
2018-02-04T03:13:33.979Z,79.80
2018-02-04T03:16:01.516Z,79.80
2018-02-04T03:18:29.085Z,79.80
2018-02-04T03:20:56.613Z,79.80
2018-02-04T03:23:24.952Z,79.80
2018-02-04T03:25:52.488Z,79.80
2018-02-04T03:28:20.070Z,79.80
2018-02-04T03:30:47.607Z,79.80
2018-02-04T03:33:15.183Z,79.80
2018-02-04T03:35:42.730Z,79.90
2018-02-04T03:38:10.313Z,79.90
2018-02-04T03:40:37.849Z,79.90
2018-02-04T03:43:05.423Z,79.90
2018-02-04T03:45:32.952Z,79.80
2018-02-04T03:48:00.529Z,79.90
2018-02-04T03:50:28.072Z,80.00
2018-02-04T03:52:55.645Z,80.00
2018-02-04T03:55:23.188Z,80.00
2018-02-04T03:57:50.764Z,80.00
2018-02-04T04:00:18.303Z,80.00
2018-02-04T04:02:45.882Z,80.00
2018-02-04T04:05:13.423Z,80.00
2018-02-04T04:07:40.998Z,80.00
2018-02-04T04:10:08.533Z,80.10
2018-02-04T04:12:36.121Z,80.00
2018-02-04T04:15:03.677Z,80.10
2018-02-04T04:17:31.258Z,80.00
2018-02-04T04:19:58.794Z,80.00
2018-02-04T04:22:26.373Z,80.00
2018-02-04T04:24:54.020Z,80.10
2018-02-04T04:27:21.594Z,80.00
2018-02-04T04:29:49.124Z,80.00
2018-02-04T04:32:16.797Z,80.00
2018-02-04T04:34:44.360Z,80.00
2018-02-04T04:37:11.936Z,80.00
2018-02-04T04:39:39.463Z,80.10
2018-02-04T04:42:07.038Z,80.10
2018-02-04T04:44:34.598Z,80.00
2018-02-04T04:47:02.176Z,80.00
2018-02-04T04:49:29.711Z,80.00
2018-02-04T04:51:57.286Z,80.00
2018-02-04T04:54:24.810Z,80.00
2018-02-04T04:56:52.387Z,80.00
2018-02-04T04:59:20.024Z,80.10
2018-02-04T05:01:48.359Z,80.10
2018-02-04T05:04:15.895Z,80.00
2018-02-04T05:06:43.554Z,80.10
2018-02-04T05:09:11.087Z,80.10
2018-02-04T05:11:39.427Z,80.10
2018-02-04T05:14:06.966Z,80.10
2018-02-04T05:16:34.542Z,80.10
2018-02-04T05:19:02.079Z,80.10
2018-02-04T05:21:29.653Z,80.10
2018-02-04T05:23:57.296Z,80.10
2018-02-04T05:26:24.867Z,80.20
2018-02-04T05:28:52.408Z,80.20
2018-02-04T05:31:19.984Z,80.20
2018-02-04T05:33:47.530Z,80.20
2018-02-04T05:36:15.105Z,80.30
2018-02-04T05:38:42.759Z,80.30
2018-02-04T05:41:10.339Z,80.40
2018-02-04T05:43:37.895Z,80.40
2018-02-04T05:46:05.498Z,80.40
2018-02-04T05:48:33.793Z,80.50
2018-02-04T05:51:01.380Z,80.50
2018-02-04T05:53:28.922Z,80.50
2018-02-04T05:55:56.501Z,80.60
2018-02-04T05:58:24.045Z,80.60
2018-02-04T06:00:51.625Z,80.70
2018-02-04T06:03:19.159Z,80.70
2018-02-04T06:05:46.737Z,80.70
2018-02-04T06:08:14.299Z,80.80
2018-02-04T06:10:41.880Z,80.90
2018-02-04T06:13:09.422Z,81.00
2018-02-04T06:15:37.017Z,81.10
2018-02-04T06:18:04.546Z,81.00
2018-02-04T06:20:32.127Z,81.10
2018-02-04T06:23:00.171Z,81.10
2018-02-04T06:25:27.752Z,81.20
2018-02-04T06:27:55.287Z,81.00
2018-02-04T06:30:22.891Z,81.10
2018-02-04T06:32:51.201Z,81.20
2018-02-04T06:35:18.775Z,81.20
2018-02-04T06:37:46.303Z,81.20
2018-02-04T06:40:14.643Z,81.30
2018-02-04T06:42:42.172Z,81.20
2018-02-04T06:45:09.740Z,81.30
2018-02-04T06:47:37.264Z,81.30
2018-02-04T06:50:04.835Z,81.30
2018-02-04T06:52:32.364Z,81.30
2018-02-04T06:55:00.699Z,81.50
2018-02-04T06:57:28.229Z,81.40
2018-02-04T06:59:55.807Z,81.40
2018-02-04T07:02:23.337Z,81.50
2018-02-04T07:04:50.920Z,81.50
2018-02-04T07:07:18.479Z,81.50
2018-02-04T07:09:46.060Z,81.50
2018-02-04T07:12:13.601Z,81.60
2018-02-04T07:14:41.171Z,81.60
2018-02-04T07:17:08.705Z,81.60
2018-02-04T07:19:36.283Z,81.60
2018-02-04T07:22:03.811Z,81.60
2018-02-04T07:24:32.167Z,81.70
2018-02-04T07:26:59.705Z,81.70
2018-02-04T07:29:27.235Z,81.70
2018-02-04T07:31:54.827Z,81.60
2018-02-04T07:34:22.355Z,81.70
2018-02-04T07:36:49.930Z,81.70
2018-02-04T07:39:17.456Z,81.70
2018-02-04T07:41:45.036Z,81.80
2018-02-04T07:44:12.574Z,81.80
2018-02-04T07:46:40.149Z,81.70
2018-02-04T07:49:07.679Z,81.80
2018-02-04T07:51:36.026Z,81.90
2018-02-04T07:54:03.564Z,81.80
2018-02-04T07:56:31.175Z,81.80
2018-02-04T07:58:59.519Z,81.80
2018-02-04T08:01:27.048Z,81.80
2018-02-04T08:03:54.836Z,81.80
2018-02-04T08:09:13.009Z,81.80
2018-02-04T08:11:41.316Z,81.90
2018-02-04T08:14:09.676Z,81.90
2018-02-04T08:16:37.217Z,81.90
2018-02-04T08:19:04.807Z,82.40
2018-02-04T08:21:33.104Z,82.60
2018-02-04T08:24:00.690Z,82.50
2018-02-04T08:26:28.225Z,82.40
2018-02-04T08:28:55.902Z,82.30
2018-02-04T08:31:23.430Z,82.20
2018-02-04T08:33:51.784Z,82.20
2018-02-04T08:36:20.078Z,82.00
2018-02-04T08:38:48.433Z,82.10
2018-02-04T08:41:16.735Z,82.10
2018-02-04T08:43:45.080Z,82.20
2018-02-04T08:46:12.677Z,82.10
2018-02-04T08:48:40.253Z,82.20
2018-02-04T08:51:07.792Z,82.20
2018-02-04T08:53:36.100Z,82.30
2018-02-04T08:56:03.818Z,82.20
2018-02-04T08:58:31.465Z,82.20
2018-02-04T09:01:00.119Z,83.10
2018-02-04T09:03:27.741Z,82.30
2018-02-04T09:05:56.096Z,82.50
2018-02-04T09:08:23.717Z,82.30
2018-02-04T09:10:51.309Z,82.30
2018-02-04T09:13:18.854Z,82.40
2018-02-04T09:15:46.445Z,82.50
2018-02-04T09:18:13.989Z,82.40
2018-02-04T09:20:41.725Z,82.40
2018-02-04T09:23:09.278Z,82.40
2018-02-04T09:25:36.867Z,82.50
2018-02-04T09:28:04.505Z,82.40
2018-02-04T09:30:32.095Z,82.50
2018-02-04T09:32:59.636Z,83.20
2018-02-04T09:35:27.216Z,82.40
2018-02-04T09:37:54.842Z,82.50
2018-02-04T09:40:22.431Z,82.50
2018-02-04T09:42:49.965Z,82.50
2018-02-04T09:45:17.559Z,82.50
2018-02-04T09:47:46.620Z,82.50
2018-02-04T09:50:14.212Z,82.50
2018-02-04T09:52:41.838Z,82.50
2018-02-04T09:55:09.427Z,82.50
2018-02-04T09:57:37.062Z,82.50
2018-02-04T10:00:04.649Z,82.60
2018-02-04T10:02:32.182Z,82.60
2018-02-04T10:04:59.770Z,82.60
2018-02-04T10:07:27.337Z,82.40
2018-02-04T10:09:54.912Z,82.50
2018-02-04T10:12:22.488Z,82.50
2018-02-04T10:14:50.830Z,82.50
2018-02-04T10:17:18.356Z,82.50
2018-02-04T10:19:45.940Z,82.50
2018-02-04T10:22:13.477Z,82.50
2018-02-04T10:24:41.054Z,82.50
2018-02-04T10:27:08.696Z,82.50
2018-02-04T10:29:36.293Z,82.40
2018-02-04T10:32:03.835Z,82.40
2018-02-04T10:34:31.361Z,82.40
2018-02-04T10:36:58.955Z,82.50
2018-02-04T10:39:26.506Z,82.60
2018-02-04T10:41:54.098Z,81.60
2018-02-04T10:44:21.633Z,80.70
2018-02-04T10:46:49.243Z,80.30
2018-02-04T10:49:17.549Z,80.50
2018-02-04T10:51:50.899Z,80.50
2018-02-04T10:54:18.428Z,80.80
2018-02-04T10:56:46.027Z,81.40
2018-02-04T10:59:14.328Z,79.40
2018-02-04T11:01:41.907Z,79.40
2018-02-04T11:04:09.446Z,78.20
2018-02-04T11:06:37.040Z,77.00
2018-02-04T11:09:04.586Z,76.00
2018-02-04T11:11:32.182Z,75.50
2018-02-04T11:14:01.341Z,73.90
2018-02-04T11:16:28.928Z,73.90
2018-02-04T11:18:56.666Z,73.80
2018-02-04T11:21:24.275Z,74.90
2018-02-04T11:23:52.578Z,77.30
2018-02-04T11:26:22.128Z,77.20
2018-02-04T11:28:49.664Z,77.70
2018-02-04T11:31:20.211Z,78.00
2018-02-04T11:33:47.863Z,77.70
2018-02-04T11:36:15.442Z,77.40
2018-02-04T11:38:42.977Z,77.80
2018-02-04T11:41:10.562Z,78.30
2018-02-04T11:43:38.082Z,78.50
2018-02-04T11:46:05.673Z,79.00
2018-02-04T11:48:33.216Z,79.00
2018-02-04T11:51:00.800Z,78.40
2018-02-04T11:53:28.328Z,78.40
2018-02-04T11:55:55.916Z,79.10
2018-02-04T11:58:23.558Z,79.40
2018-02-04T12:00:51.139Z,79.70
2018-02-04T12:03:18.676Z,79.90
2018-02-04T12:05:46.261Z,80.30
2018-02-04T12:08:13.803Z,80.50
2018-02-04T12:10:41.401Z,80.70
2018-02-04T12:13:08.943Z,80.90
2018-02-04T12:15:36.533Z,81.10
2018-02-04T12:18:04.842Z,81.60
2018-02-04T12:20:32.476Z,81.50
2018-02-04T12:23:00.899Z,81.80
2018-02-04T12:25:28.488Z,81.90
2018-02-04T12:27:56.044Z,82.00
2018-02-04T12:30:23.635Z,82.10
2018-02-04T12:32:52.021Z,82.10
2018-02-04T12:35:19.717Z,82.10
2018-02-04T12:37:47.382Z,81.90
2018-02-04T12:40:14.996Z,81.90
2018-02-04T12:42:43.402Z,81.80
2018-02-04T12:45:11.029Z,81.80
2018-02-04T12:47:39.351Z,81.60
2018-02-04T12:50:06.970Z,82.00
2018-02-04T12:52:35.399Z,81.50
2018-02-04T12:55:03.029Z,81.50
2018-02-04T12:57:31.356Z,81.40
2018-02-04T12:59:58.979Z,81.30
2018-02-04T13:02:26.543Z,81.90
2018-02-04T13:04:54.222Z,80.90
2018-02-04T13:07:21.765Z,80.90
2018-02-04T13:09:49.413Z,80.90
2018-02-04T13:12:17.725Z,81.10
2018-02-04T13:14:45.315Z,81.10
2018-02-04T13:17:12.871Z,81.30
2018-02-04T13:19:40.461Z,81.30
2018-02-04T13:22:08.768Z,81.50
2018-02-04T13:24:36.353Z,81.50
2018-02-04T13:27:03.893Z,81.50
2018-02-04T13:29:31.471Z,81.40
2018-02-04T13:31:59.008Z,81.30
2018-02-04T13:34:26.595Z,81.40
2018-02-04T13:36:54.136Z,81.40
2018-02-04T13:39:21.727Z,81.10
2018-02-04T13:41:49.266Z,81.20
2018-02-04T13:44:16.844Z,81.10
2018-02-04T13:46:44.372Z,81.10
2018-02-04T13:49:11.973Z,81.00
2018-02-04T13:51:39.503Z,81.10
2018-02-04T13:54:07.155Z,80.70
2018-02-04T13:56:34.710Z,80.80
2018-02-04T13:59:02.307Z,80.80
2018-02-04T14:01:29.839Z,81.00
2018-02-04T14:03:57.407Z,81.10
2018-02-04T14:06:24.993Z,81.10
2018-02-04T14:08:52.597Z,81.30
2018-02-04T14:11:20.139Z,81.50
2018-02-04T14:13:48.450Z,81.50
2018-02-04T14:16:16.041Z,81.50
2018-02-04T14:18:43.578Z,81.60
2018-02-04T14:21:11.172Z,81.60
2018-02-04T14:23:39.474Z,81.60
2018-02-04T14:26:07.827Z,81.70
2018-02-04T14:28:35.352Z,81.60
2018-02-04T14:31:02.931Z,81.50
2018-02-04T14:33:30.461Z,81.40
2018-02-04T14:35:58.061Z,81.30
2018-02-04T14:38:25.590Z,81.40
2018-02-04T14:40:53.169Z,81.60
2018-02-04T14:43:20.712Z,81.50
2018-02-04T14:45:48.302Z,81.70
2018-02-04T14:48:15.849Z,81.80
2018-02-04T14:50:43.429Z,81.80
2018-02-04T14:53:10.962Z,81.80
2018-02-04T14:55:38.540Z,81.90
2018-02-04T14:58:06.119Z,81.90
2018-02-04T15:00:34.543Z,82.00
2018-02-04T15:03:02.089Z,81.90
2018-02-04T15:05:30.441Z,82.00
2018-02-04T15:07:58.748Z,81.90
2018-02-04T15:10:26.349Z,81.80
2018-02-04T15:12:53.880Z,81.90
2018-02-04T15:15:21.467Z,81.90
2018-02-04T15:17:48.995Z,81.90
2018-02-04T15:20:16.586Z,81.90
2018-02-04T15:22:44.116Z,81.90
2018-02-04T15:25:11.705Z,81.90
2018-02-04T15:27:39.251Z,81.80
2018-02-04T15:30:06.829Z,81.90
2018-02-04T15:32:34.457Z,81.90
2018-02-04T15:35:02.035Z,81.90
2018-02-04T15:37:29.582Z,81.90
2018-02-04T15:39:57.169Z,81.90
2018-02-04T15:42:24.748Z,82.00
2018-02-04T15:44:52.339Z,82.00
2018-02-04T15:47:19.878Z,82.00
2018-02-04T15:49:48.229Z,82.00
2018-02-04T15:52:15.780Z,82.00
2018-02-04T15:54:43.405Z,82.10
2018-02-04T15:57:10.946Z,82.20
2018-02-04T15:59:39.309Z,82.20
2018-02-04T16:02:07.612Z,82.20
2018-02-04T16:04:35.204Z,82.00
2018-02-04T16:07:02.730Z,82.30
2018-02-04T16:09:30.338Z,82.20
2018-02-04T16:11:57.877Z,82.20
2018-02-04T16:14:25.456Z,82.20
2018-02-04T16:16:53.004Z,82.20
2018-02-04T16:19:20.631Z,82.30
2018-02-04T16:21:48.174Z,82.30
2018-02-04T16:24:16.526Z,82.30
2018-02-04T16:26:44.061Z,82.30
2018-02-04T16:29:11.646Z,82.20
2018-02-04T16:31:39.186Z,82.30
2018-02-04T16:34:06.765Z,82.40
2018-02-04T16:36:34.306Z,82.30
2018-02-04T16:39:01.896Z,82.30
2018-02-04T16:41:29.443Z,82.30
2018-02-04T16:43:57.040Z,82.30
2018-02-04T16:46:24.583Z,82.30
2018-02-04T16:48:53.005Z,82.20
2018-02-04T16:51:20.555Z,82.20
2018-02-04T16:53:48.137Z,82.20
2018-02-04T16:56:15.712Z,82.10
2018-02-04T16:58:43.288Z,82.20
2018-02-04T17:01:10.839Z,82.00
2018-02-04T17:03:38.415Z,82.00
2018-02-04T17:06:05.985Z,82.00
2018-02-04T17:08:34.321Z,81.80
2018-02-04T17:11:01.881Z,81.80
2018-02-04T17:13:29.455Z,81.70
2018-02-04T17:15:57.026Z,82.50
2018-02-04T17:18:24.625Z,81.70
2018-02-04T17:20:52.176Z,81.70
2018-02-04T17:23:19.711Z,81.60
2018-02-04T17:25:48.050Z,81.50
2018-02-04T17:28:15.621Z,81.40
2018-02-04T17:30:43.171Z,81.40
2018-02-04T17:33:10.766Z,81.50
2018-02-04T17:35:38.360Z,81.30
2018-02-04T17:38:05.895Z,81.20
2018-02-04T17:40:34.232Z,81.20
2018-02-04T17:43:01.775Z,81.20
2018-02-04T17:45:29.350Z,81.10
2018-02-04T17:47:56.892Z,81.20
2018-02-04T17:50:24.449Z,81.10
2018-02-04T17:52:51.980Z,81.10
2018-02-04T17:55:19.591Z,81.10
2018-02-04T17:57:47.164Z,81.10
2018-02-04T18:00:14.730Z,81.00
2018-02-04T18:02:42.303Z,80.90
2018-02-04T18:05:10.638Z,80.40
2018-02-04T18:07:38.175Z,81.00
2018-02-04T18:10:05.743Z,80.90
2018-02-04T18:12:33.308Z,81.00
2018-02-04T18:15:00.883Z,81.00
2018-02-04T18:17:28.420Z,80.90
2018-02-04T18:19:56.096Z,80.80
2018-02-04T18:22:23.632Z,80.70
2018-02-04T18:24:51.210Z,80.60
2018-02-04T18:27:18.781Z,80.60
2018-02-04T18:29:46.337Z,80.60
2018-02-04T18:32:13.927Z,80.50
2018-02-04T18:34:41.462Z,80.50
2018-02-04T18:37:09.008Z,80.50
2018-02-04T18:39:36.668Z,80.60
2018-02-04T18:42:04.245Z,80.50
2018-02-04T18:44:31.799Z,80.50
2018-02-04T18:46:59.419Z,80.40
2018-02-04T18:49:27.736Z,80.30
2018-02-04T18:51:55.310Z,80.30
2018-02-04T18:54:22.919Z,80.30
2018-02-04T18:56:51.224Z,80.30
2018-02-04T18:59:18.803Z,80.30
2018-02-04T19:01:46.380Z,80.50
2018-02-04T19:04:14.154Z,80.30
2018-02-04T19:06:41.691Z,80.40
2018-02-04T19:09:09.235Z,80.30
2018-02-04T19:11:36.825Z,80.10
2018-02-04T19:14:04.359Z,80.10
2018-02-04T19:16:31.998Z,80.20
2018-02-04T19:18:59.538Z,80.00
2018-02-04T19:21:27.903Z,80.00
2018-02-04T19:23:56.333Z,80.10
2018-02-04T19:26:23.877Z,80.10
2018-02-04T19:28:51.457Z,80.10
2018-02-04T19:31:19.175Z,80.00
2018-02-04T19:33:47.504Z,80.10
2018-02-04T19:36:15.039Z,80.00
2018-02-04T19:38:42.672Z,80.60
2018-02-04T19:41:11.100Z,79.80
2018-02-04T19:43:38.647Z,79.80
2018-02-04T19:46:06.263Z,79.70
2018-02-04T19:48:34.588Z,79.80
2018-02-04T19:51:02.229Z,79.70
2018-02-04T19:53:29.772Z,79.70
2018-02-04T19:55:58.071Z,79.60
2018-02-04T19:58:25.676Z,79.60
2018-02-04T20:00:53.273Z,79.60
2018-02-04T20:03:21.574Z,79.50
2018-02-04T20:05:49.485Z,79.50
2018-02-04T20:08:17.092Z,79.60
2018-02-04T20:10:44.670Z,79.60
2018-02-04T20:13:12.262Z,79.50
2018-02-04T20:15:39.796Z,79.60
2018-02-04T20:18:07.454Z,79.60
2018-02-04T20:20:34.986Z,79.60
2018-02-04T20:23:03.331Z,79.50
2018-02-04T20:25:30.900Z,79.50
2018-02-04T20:27:59.384Z,80.30
2018-02-04T20:30:27.757Z,79.50
2018-02-04T20:33:07.264Z,79.50
2018-02-04T20:35:34.834Z,79.50
2018-02-04T20:38:02.450Z,79.50
2018-02-04T20:40:30.241Z,79.50
2018-02-04T20:42:57.816Z,79.50
2018-02-04T20:45:25.437Z,79.60
2018-02-04T20:47:53.125Z,79.40
2018-02-04T20:50:20.770Z,79.50
2018-02-04T20:52:48.304Z,79.40
2018-02-04T20:55:16.637Z,79.40
2018-02-04T20:57:44.216Z,79.40
2018-02-04T21:00:11.841Z,79.50
2018-02-04T21:02:39.376Z,79.50
2018-02-04T21:05:06.991Z,79.60
2018-02-04T21:07:34.690Z,79.40
2018-02-04T21:10:03.042Z,79.40
2018-02-04T21:12:30.572Z,79.30
2018-02-04T21:14:58.113Z,79.40
2018-02-04T21:17:25.692Z,79.30
2018-02-04T21:19:53.307Z,79.40
2018-02-04T21:22:21.615Z,79.20
2018-02-04T21:24:49.257Z,79.20
2018-02-04T21:27:16.797Z,79.10
2018-02-04T21:29:45.141Z,79.10
2018-02-04T21:32:12.719Z,79.00
2018-02-04T21:34:40.267Z,79.00
2018-02-04T21:37:07.896Z,79.80
2018-02-04T21:39:35.428Z,78.90
2018-02-04T21:42:03.075Z,78.90
2018-02-04T21:44:30.690Z,78.80
2018-02-04T21:46:58.283Z,78.70
2018-02-04T21:49:26.006Z,78.80
2018-02-04T21:51:53.586Z,79.50
2018-02-04T21:54:21.176Z,78.80
2018-02-04T21:56:49.512Z,78.70
2018-02-04T21:59:17.081Z,78.80
2018-02-04T22:01:44.697Z,78.70
2018-02-04T22:04:12.276Z,78.70
2018-02-04T22:06:39.837Z,78.70
2018-02-04T22:09:07.664Z,78.70
2018-02-04T22:11:36.013Z,78.70
2018-02-04T22:14:03.542Z,78.70
2018-02-04T22:16:31.117Z,78.60
2018-02-04T22:18:58.660Z,78.60
2018-02-04T22:21:26.222Z,78.70
2018-02-04T22:23:53.766Z,78.60
2018-02-04T22:26:21.390Z,78.60
2018-02-04T22:28:48.927Z,78.60
2018-02-04T22:31:16.506Z,78.70
2018-02-04T22:33:44.034Z,78.80
2018-02-04T22:36:11.619Z,78.90
2018-02-04T22:38:40.662Z,79.20
2018-02-04T22:41:08.201Z,79.10
2018-02-04T22:43:36.542Z,79.20
2018-02-04T22:46:04.085Z,79.20
2018-02-04T22:48:31.666Z,79.30
2018-02-04T22:50:59.206Z,79.40
2018-02-04T22:53:26.797Z,79.40
2018-02-04T22:55:54.341Z,79.50
2018-02-04T22:58:21.920Z,79.50
2018-02-04T23:00:50.247Z,79.60
2018-02-04T23:03:17.840Z,79.60
2018-02-04T23:05:45.433Z,79.70
2018-02-04T23:08:12.965Z,79.80
2018-02-04T23:10:40.539Z,79.80
2018-02-04T23:13:08.079Z,80.00
2018-02-04T23:15:35.664Z,80.00
2018-02-04T23:18:03.967Z,80.00
2018-02-04T23:20:31.550Z,80.00
2018-02-04T23:22:59.082Z,80.20
2018-02-04T23:25:26.626Z,80.30
2018-02-04T23:27:54.973Z,80.30
2018-02-04T23:30:22.553Z,80.30
2018-02-04T23:32:50.854Z,80.20
2018-02-04T23:35:18.485Z,80.20
2018-02-04T23:37:46.029Z,80.20
2018-02-04T23:40:13.581Z,80.30
2018-02-04T23:42:41.160Z,80.40
2018-02-04T23:45:08.740Z,80.20
2018-02-04T23:47:37.043Z,80.40
2018-02-04T23:50:04.642Z,80.40
2018-02-04T23:52:32.174Z,80.40
2018-02-04T23:54:59.730Z,80.50
2018-02-04T23:57:27.304Z,80.60
2018-02-04T23:59:54.844Z,80.50
